createdAt,value
2023-08-28T00:00:00.298Z,23.63
2023-08-28T00:01:00.277Z,23.59
2023-08-28T00:02:00.326Z,23.71
2023-08-28T00:03:00.584Z,23.68
2023-08-28T00:04:00.300Z,23.63
2023-08-28T00:05:00.234Z,23.63
2023-08-28T00:06:00.230Z,23.65
2023-08-28T00:07:00.211Z,23.65
2023-08-28T00:08:00.240Z,23.68
2023-08-28T00:09:00.185Z,23.59
2023-08-28T00:10:00.213Z,23.62
2023-08-28T00:11:00.167Z,23.65
2023-08-28T00:12:00.159Z,23.59
2023-08-28T00:13:00.429Z,23.56
2023-08-28T00:14:00.165Z,23.56
2023-08-28T00:15:00.190Z,23.63
2023-08-28T00:16:00.163Z,23.59
2023-08-28T00:17:00.145Z,23.65
2023-08-28T00:18:00.183Z,23.62
2023-08-28T00:19:00.077Z,23.54
2023-08-28T00:20:00.098Z,23.59
2023-08-28T00:21:00.053Z,23.62
2023-08-28T00:22:00.047Z,23.56
2023-08-28T00:23:00.427Z,23.58
2023-08-28T00:24:00.047Z,23.46
2023-08-28T00:25:00.010Z,23.50
2023-08-28T00:26:00.048Z,23.48
2023-08-28T00:26:59.995Z,23.55
2023-08-28T00:27:59.984Z,23.47
2023-08-28T00:28:59.973Z,23.43
2023-08-28T00:29:59.997Z,23.41
2023-08-28T00:30:59.947Z,23.34
2023-08-28T00:31:59.989Z,23.40
2023-08-28T00:33:00.136Z,23.23
2023-08-28T00:33:59.911Z,23.36
2023-08-28T00:34:59.901Z,23.28
2023-08-28T00:35:59.923Z,23.34
2023-08-28T00:36:59.894Z,23.34
2023-08-28T00:37:59.948Z,23.28
2023-08-28T00:38:59.876Z,23.41
2023-08-28T00:39:59.873Z,23.32
2023-08-28T00:40:59.839Z,23.25
2023-08-28T00:41:59.845Z,23.20
2023-08-28T00:42:59.993Z,23.32
2023-08-28T00:43:59.838Z,23.28
2023-08-28T00:44:59.800Z,23.27
2023-08-28T00:45:59.813Z,23.28
2023-08-28T00:46:59.771Z,23.23
2023-08-28T00:47:59.831Z,23.23
2023-08-28T00:48:59.758Z,23.27
2023-08-28T00:49:59.784Z,23.28
2023-08-28T00:50:59.732Z,23.28
2023-08-28T00:51:59.710Z,23.21
2023-08-28T00:52:59.979Z,23.27
2023-08-28T00:53:59.752Z,23.21
2023-08-28T00:54:59.679Z,23.20
2023-08-28T00:55:59.725Z,23.20
2023-08-28T00:56:59.829Z,23.23
2023-08-28T00:57:59.645Z,23.17
2023-08-28T00:58:59.635Z,23.13
2023-08-28T00:59:59.622Z,23.21
2023-08-28T01:00:59.680Z,23.20
2023-08-28T01:01:59.632Z,23.12
2023-08-28T01:02:59.780Z,23.15
2023-08-28T01:03:59.579Z,23.09
2023-08-28T01:04:59.618Z,23.05
2023-08-28T01:05:59.581Z,23.15
2023-08-28T01:06:59.546Z,23.06
2023-08-28T01:07:59.565Z,23.05
2023-08-28T01:08:59.526Z,23.09
2023-08-28T01:09:59.509Z,23.08
2023-08-28T01:10:59.505Z,22.98
2023-08-28T01:11:59.524Z,23.05
2023-08-28T01:12:59.579Z,23.08
2023-08-28T01:13:59.522Z,22.94
2023-08-28T01:14:59.460Z,23.02
2023-08-28T01:15:59.561Z,22.96
2023-08-28T01:16:59.436Z,22.98
2023-08-28T01:17:59.507Z,22.90
2023-08-28T01:18:59.411Z,22.88
2023-08-28T01:19:59.428Z,22.93
2023-08-28T01:20:59.393Z,22.99
2023-08-28T01:21:59.377Z,22.94
2023-08-28T01:22:59.470Z,22.96
2023-08-28T01:23:59.364Z,22.93
2023-08-28T01:24:59.345Z,22.88
2023-08-28T01:25:59.370Z,22.93
2023-08-28T01:26:59.353Z,22.93
2023-08-28T01:27:59.338Z,22.91
2023-08-28T01:28:59.306Z,22.90
2023-08-28T01:29:59.290Z,22.91
2023-08-28T01:30:59.335Z,22.93
2023-08-28T01:31:59.282Z,22.87
2023-08-28T01:32:59.285Z,22.83
2023-08-28T01:33:59.251Z,22.84
2023-08-28T01:34:59.238Z,22.80
2023-08-28T01:35:59.222Z,22.88
2023-08-28T01:36:59.211Z,22.84
2023-08-28T01:37:59.215Z,22.85
2023-08-28T01:38:59.237Z,22.76
2023-08-28T01:39:59.176Z,22.88
2023-08-28T01:40:59.226Z,22.78
2023-08-28T01:41:59.159Z,22.85
2023-08-28T01:42:59.160Z,22.81
2023-08-28T01:43:59.191Z,22.76
2023-08-28T01:44:59.126Z,22.75
2023-08-28T01:45:59.112Z,22.84
2023-08-28T01:46:59.139Z,22.83
2023-08-28T01:47:59.223Z,22.78
2023-08-28T01:48:59.079Z,22.73
2023-08-28T01:49:59.081Z,22.75
2023-08-28T01:50:59.083Z,22.76
2023-08-28T01:51:59.046Z,22.78
2023-08-28T01:52:59.053Z,22.68
2023-08-28T01:53:59.019Z,22.76
2023-08-28T01:54:59.012Z,22.72
2023-08-28T01:55:59.035Z,22.80
2023-08-28T01:56:58.988Z,22.72
2023-08-28T01:57:58.991Z,22.75
2023-08-28T01:58:58.976Z,22.69
2023-08-28T01:59:58.979Z,22.68
2023-08-28T02:00:59.007Z,22.65
2023-08-28T02:01:59.121Z,22.68
2023-08-28T02:02:58.942Z,22.72
2023-08-28T02:03:58.922Z,22.72
2023-08-28T02:04:58.917Z,22.69
2023-08-28T02:05:58.888Z,22.75
2023-08-28T02:06:58.876Z,22.69
2023-08-28T02:07:58.908Z,22.62
2023-08-28T02:08:58.858Z,22.66
2023-08-28T02:09:58.853Z,22.65
2023-08-28T02:10:58.857Z,22.62
2023-08-28T02:11:58.821Z,22.55
2023-08-28T02:12:58.812Z,22.60
2023-08-28T02:13:58.903Z,22.55
2023-08-28T02:14:58.815Z,22.55
2023-08-28T02:15:58.812Z,22.55
2023-08-28T02:16:58.832Z,22.55
2023-08-28T02:17:58.796Z,22.51
2023-08-28T02:18:58.744Z,22.54
2023-08-28T02:19:58.766Z,22.59
2023-08-28T02:20:58.751Z,22.53
2023-08-28T02:21:58.710Z,22.55
2023-08-28T02:22:58.698Z,22.57
2023-08-28T02:23:58.694Z,22.47
2023-08-28T02:24:58.682Z,22.50
2023-08-28T02:25:58.712Z,22.50
2023-08-28T02:26:58.663Z,22.51
2023-08-28T02:27:58.641Z,22.53
2023-08-28T02:28:58.632Z,22.53
2023-08-28T02:29:58.619Z,22.53
2023-08-28T02:30:58.725Z,22.54
2023-08-28T02:31:58.727Z,22.59
2023-08-28T02:32:58.701Z,22.53
2023-08-28T02:33:58.670Z,22.54
2023-08-28T02:34:58.564Z,22.53
2023-08-28T02:35:58.552Z,22.55
2023-08-28T02:36:58.546Z,22.59
2023-08-28T02:37:58.566Z,22.53
2023-08-28T02:38:58.526Z,22.54
2023-08-28T02:39:58.510Z,22.48
2023-08-28T02:40:58.516Z,22.54
2023-08-28T02:41:58.482Z,22.48
2023-08-28T02:42:58.551Z,22.48
2023-08-28T02:43:58.491Z,22.47
2023-08-28T02:44:58.453Z,22.47
2023-08-28T02:45:58.501Z,22.48
2023-08-28T02:46:58.428Z,22.39
2023-08-28T02:47:58.467Z,22.48
2023-08-28T02:48:58.431Z,22.48
2023-08-28T02:49:58.484Z,22.48
2023-08-28T02:50:58.387Z,22.38
2023-08-28T02:51:58.395Z,22.41
2023-08-28T02:52:58.385Z,22.38
2023-08-28T02:53:58.389Z,22.38
2023-08-28T02:54:58.337Z,22.41
2023-08-28T02:55:58.352Z,22.47
2023-08-28T02:56:58.319Z,22.33
2023-08-28T02:57:58.307Z,22.32
2023-08-28T02:58:58.298Z,22.41
2023-08-28T02:59:58.282Z,22.38
2023-08-28T03:00:58.277Z,22.38
2023-08-28T03:01:58.350Z,22.43
2023-08-28T03:02:58.355Z,22.38
2023-08-28T03:03:58.299Z,22.33
2023-08-28T03:04:58.233Z,22.38
2023-08-28T03:05:58.221Z,22.36
2023-08-28T03:06:58.207Z,22.38
2023-08-28T03:07:58.263Z,22.30
2023-08-28T03:08:58.197Z,22.33
2023-08-28T03:09:58.169Z,22.39
2023-08-28T03:10:58.160Z,22.33
2023-08-28T03:11:58.149Z,22.33
2023-08-28T03:12:58.184Z,22.35
2023-08-28T03:13:58.194Z,22.35
2023-08-28T03:14:58.116Z,22.33
2023-08-28T03:15:58.130Z,22.30
2023-08-28T03:16:58.099Z,22.32
2023-08-28T03:17:58.112Z,22.33
2023-08-28T03:18:58.083Z,22.22
2023-08-28T03:19:58.123Z,22.23
2023-08-28T03:20:58.061Z,22.32
2023-08-28T03:21:58.054Z,22.32
2023-08-28T03:22:58.049Z,22.25
2023-08-28T03:23:58.040Z,22.25
2023-08-28T03:24:58.006Z,22.25
2023-08-28T03:25:58.031Z,22.23
2023-08-28T03:26:57.990Z,22.30
2023-08-28T03:27:57.987Z,22.18
2023-08-28T03:28:57.960Z,22.29
2023-08-28T03:29:57.969Z,22.23
2023-08-28T03:30:57.948Z,22.20
2023-08-28T03:31:57.980Z,22.11
2023-08-28T03:32:58.071Z,22.13
2023-08-28T03:33:57.909Z,22.15
2023-08-28T03:34:57.910Z,22.15
2023-08-28T03:35:57.926Z,22.11
2023-08-28T03:36:57.871Z,22.15
2023-08-28T03:37:57.974Z,22.18
2023-08-28T03:38:57.850Z,22.22
2023-08-28T03:39:57.843Z,22.08
2023-08-28T03:40:57.846Z,22.11
2023-08-28T03:41:57.820Z,22.14
2023-08-28T03:42:57.832Z,22.15
2023-08-28T03:43:57.870Z,22.14
2023-08-28T03:44:57.783Z,22.18
2023-08-28T03:45:57.797Z,22.08
2023-08-28T03:46:57.760Z,22.13
2023-08-28T03:47:57.845Z,22.08
2023-08-28T03:48:57.750Z,22.10
2023-08-28T03:49:57.766Z,22.08
2023-08-28T03:50:57.746Z,22.08
2023-08-28T03:51:57.728Z,22.02
2023-08-28T03:52:57.694Z,22.15
2023-08-28T03:53:57.684Z,22.08
2023-08-28T03:54:57.677Z,22.08
2023-08-28T03:55:57.688Z,22.07
2023-08-28T03:56:57.649Z,22.08
2023-08-28T03:57:57.639Z,22.07
2023-08-28T03:58:57.627Z,22.07
2023-08-28T03:59:57.644Z,22.08
2023-08-28T04:00:57.610Z,22.08
2023-08-28T04:01:57.673Z,22.11
2023-08-28T04:02:57.590Z,22.08
2023-08-28T04:03:57.687Z,22.10
2023-08-28T04:05:06.518Z,22.04
2023-08-28T04:05:58.555Z,22.10
2023-08-28T04:06:57.556Z,22.11
2023-08-28T04:07:57.601Z,22.10
2023-08-28T04:08:57.526Z,22.14
2023-08-28T04:09:57.506Z,22.08
2023-08-28T04:10:57.496Z,22.17
2023-08-28T04:11:57.559Z,22.20
2023-08-28T04:12:57.480Z,22.15
2023-08-28T04:13:57.476Z,22.13
2023-08-28T04:14:57.454Z,22.07
2023-08-28T04:15:57.478Z,22.13
2023-08-28T04:16:57.435Z,22.17
2023-08-28T04:17:57.488Z,22.17
2023-08-28T04:18:57.410Z,22.13
2023-08-28T04:19:57.474Z,22.15
2023-08-28T04:20:57.388Z,22.17
2023-08-28T04:21:57.375Z,22.13
2023-08-28T04:22:57.377Z,22.17
2023-08-28T04:23:57.398Z,22.14
2023-08-28T04:24:57.346Z,22.25
2023-08-28T04:25:57.337Z,22.26
2023-08-28T04:26:57.318Z,22.30
2023-08-28T04:27:57.321Z,22.29
2023-08-28T04:28:57.315Z,22.20
2023-08-28T04:29:57.307Z,22.25
2023-08-28T04:30:57.282Z,22.35
2023-08-28T04:31:57.295Z,22.33
2023-08-28T04:32:57.285Z,22.25
2023-08-28T04:33:57.234Z,22.36
2023-08-28T04:34:57.260Z,22.30
2023-08-28T04:35:57.216Z,22.26
2023-08-28T04:36:57.206Z,22.38
2023-08-28T04:37:57.256Z,22.38
2023-08-28T04:38:57.191Z,22.36
2023-08-28T04:39:57.199Z,22.39
2023-08-28T04:40:57.162Z,22.36
2023-08-28T04:41:58.244Z,22.44
2023-08-28T04:42:57.164Z,22.43
2023-08-28T04:43:57.167Z,22.44
2023-08-28T04:44:57.117Z,22.48
2023-08-28T04:45:57.212Z,22.50
2023-08-28T04:46:57.098Z,22.55
2023-08-28T04:47:57.092Z,22.54
2023-08-28T04:48:57.074Z,22.54
2023-08-28T04:49:57.108Z,22.53
2023-08-28T04:50:57.053Z,22.60
2023-08-28T04:51:57.044Z,22.72
2023-08-28T04:52:57.030Z,22.75
2023-08-28T04:53:57.016Z,22.75
2023-08-28T04:54:57.016Z,22.68
2023-08-28T04:55:57.042Z,22.72
2023-08-28T04:56:56.986Z,22.70
2023-08-28T04:57:56.973Z,22.84
2023-08-28T04:58:56.960Z,22.81
2023-08-28T04:59:56.955Z,22.91
2023-08-28T05:00:56.973Z,22.88
2023-08-28T05:01:56.966Z,22.87
2023-08-28T05:02:57.045Z,23.00
2023-08-28T05:03:56.947Z,23.05
2023-08-28T05:04:56.897Z,23.15
2023-08-28T05:05:56.888Z,23.17
2023-08-28T05:06:56.880Z,23.20
2023-08-28T05:07:56.902Z,23.23
2023-08-28T05:08:56.857Z,23.27
2023-08-28T05:09:56.842Z,23.48
2023-08-28T05:10:56.832Z,23.54
2023-08-28T05:11:56.845Z,23.61
2023-08-28T05:12:56.819Z,23.66
2023-08-28T05:13:56.863Z,23.69
2023-08-28T05:14:56.794Z,23.71
2023-08-28T05:15:56.833Z,23.74
2023-08-28T05:16:56.794Z,23.81
2023-08-28T05:17:56.797Z,23.96
2023-08-28T05:18:56.759Z,24.01
2023-08-28T05:19:56.772Z,24.11
2023-08-28T05:20:56.730Z,24.06
2023-08-28T05:21:56.719Z,24.21
2023-08-28T05:22:56.704Z,24.24
2023-08-28T05:23:56.696Z,24.42
2023-08-28T05:24:56.682Z,24.42
2023-08-28T05:25:56.700Z,24.61
2023-08-28T05:26:56.667Z,24.69
2023-08-28T05:27:56.672Z,24.61
2023-08-28T05:28:56.648Z,24.76
2023-08-28T05:29:56.626Z,24.73
2023-08-28T05:30:56.685Z,24.81
2023-08-28T05:31:56.635Z,24.89
2023-08-28T05:32:56.659Z,24.88
2023-08-28T05:33:56.589Z,25.03
2023-08-28T05:34:56.582Z,25.04
2023-08-28T05:35:56.564Z,25.07
2023-08-28T05:36:56.551Z,25.26
2023-08-28T05:37:56.573Z,25.26
2023-08-28T05:38:56.524Z,25.33
2023-08-28T05:39:56.590Z,25.41
2023-08-28T05:40:56.509Z,25.44
2023-08-28T05:41:56.516Z,25.50
2023-08-28T05:42:56.485Z,25.55
2023-08-28T05:43:56.533Z,25.62
2023-08-28T05:44:56.490Z,25.62
2023-08-28T05:45:56.449Z,25.66
2023-08-28T05:46:56.507Z,25.78
2023-08-28T05:47:56.494Z,25.73
2023-08-28T05:48:56.416Z,25.90
2023-08-28T05:49:56.434Z,25.90
2023-08-28T05:50:56.402Z,25.98
2023-08-28T05:51:56.391Z,26.02
2023-08-28T05:52:56.412Z,26.07
2023-08-28T05:53:56.358Z,26.13
2023-08-28T05:54:56.354Z,26.18
2023-08-28T05:55:56.391Z,26.22
2023-08-28T05:56:56.328Z,26.19
2023-08-28T05:57:56.311Z,26.31
2023-08-28T05:58:56.297Z,26.31
2023-08-28T05:59:56.326Z,26.38
2023-08-28T06:00:56.914Z,26.41
2023-08-28T06:01:56.346Z,26.41
2023-08-28T06:02:56.334Z,26.44
2023-08-28T06:03:56.294Z,26.44
2023-08-28T06:04:56.230Z,26.56
2023-08-28T06:05:56.233Z,26.56
2023-08-28T06:06:56.206Z,26.58
2023-08-28T06:07:56.232Z,26.56
2023-08-28T06:08:56.197Z,26.63
2023-08-28T06:09:56.172Z,26.56
2023-08-28T06:10:56.157Z,26.66
2023-08-28T06:11:56.188Z,26.59
2023-08-28T06:12:56.153Z,26.59
2023-08-28T06:13:56.236Z,26.58
2023-08-28T06:14:56.116Z,26.63
2023-08-28T06:15:56.123Z,26.63
2023-08-28T06:16:56.112Z,26.62
2023-08-28T06:17:56.128Z,26.53
2023-08-28T06:18:56.068Z,26.53
2023-08-28T06:19:56.096Z,26.52
2023-08-28T06:20:56.865Z,26.51
2023-08-28T06:21:56.037Z,26.56
2023-08-28T06:22:56.050Z,26.55
2023-08-28T06:23:57.634Z,26.59
2023-08-28T06:24:56.022Z,26.53
2023-08-28T06:25:56.090Z,26.63
2023-08-28T06:26:55.988Z,26.62
2023-08-28T06:27:55.967Z,26.78
2023-08-28T06:28:55.976Z,26.75
2023-08-28T06:29:56.032Z,26.71
2023-08-28T06:30:56.047Z,26.73
2023-08-28T06:31:55.996Z,26.83
2023-08-28T06:32:55.973Z,26.75
2023-08-28T06:33:55.903Z,26.77
2023-08-28T06:34:55.892Z,26.81
2023-08-28T06:35:57.351Z,26.90
2023-08-28T06:36:55.871Z,26.93
2023-08-28T06:37:55.909Z,26.95
2023-08-28T06:38:55.860Z,26.99
2023-08-28T06:39:55.897Z,27.11
2023-08-28T06:40:55.827Z,27.11
2023-08-28T06:41:55.820Z,27.33
2023-08-28T06:42:55.810Z,27.21
2023-08-28T06:43:55.840Z,27.35
2023-08-28T06:44:57.424Z,27.29
2023-08-28T06:45:55.796Z,27.30
2023-08-28T06:46:55.876Z,27.51
2023-08-28T06:47:55.878Z,27.55
2023-08-28T06:48:55.739Z,27.51
2023-08-28T06:49:55.917Z,27.54
2023-08-28T06:50:55.725Z,27.73
2023-08-28T06:51:55.712Z,27.70
2023-08-28T06:52:55.699Z,27.80
2023-08-28T06:53:55.723Z,27.82
2023-08-28T06:54:55.686Z,27.86
2023-08-28T06:55:56.382Z,27.98
2023-08-28T06:56:55.674Z,27.86
2023-08-28T06:57:55.645Z,28.00
2023-08-28T06:58:55.632Z,28.00
2023-08-28T06:59:55.718Z,28.00
2023-08-28T07:00:55.637Z,28.05
2023-08-28T07:01:55.623Z,28.20
2023-08-28T07:02:55.647Z,28.11
2023-08-28T07:03:55.642Z,28.29
2023-08-28T07:04:55.616Z,28.29
2023-08-28T07:05:57.769Z,28.30
2023-08-28T07:06:55.545Z,28.35
2023-08-28T07:07:55.571Z,28.41
2023-08-28T07:08:55.568Z,28.48
2023-08-28T07:09:55.522Z,28.51
2023-08-28T07:10:55.499Z,28.54
2023-08-28T07:11:55.573Z,28.66
2023-08-28T07:12:55.564Z,28.70
2023-08-28T07:13:55.506Z,28.60
2023-08-28T07:14:56.387Z,28.69
2023-08-28T07:15:55.448Z,28.62
2023-08-28T07:16:55.438Z,28.78
2023-08-28T07:17:55.441Z,28.84
2023-08-28T07:18:55.416Z,28.75
2023-08-28T07:19:55.474Z,28.88
2023-08-28T07:20:55.396Z,28.86
2023-08-28T07:21:55.379Z,28.86
2023-08-28T07:22:55.386Z,28.93
2023-08-28T07:23:55.359Z,29.05
2023-08-28T07:24:55.347Z,29.07
2023-08-28T07:25:55.416Z,29.12
2023-08-28T07:26:55.329Z,29.14
2023-08-28T07:27:55.314Z,29.20
2023-08-28T07:28:55.312Z,29.24
2023-08-28T07:29:55.317Z,29.31
2023-08-28T07:30:55.334Z,29.32
2023-08-28T07:31:55.305Z,29.39
2023-08-28T07:32:55.312Z,29.60
2023-08-28T07:33:55.249Z,29.54
2023-08-28T07:34:55.239Z,29.60
2023-08-28T07:35:55.263Z,29.72
2023-08-28T07:36:55.289Z,29.69
2023-08-28T07:37:55.222Z,29.78
2023-08-28T07:38:55.195Z,29.79
2023-08-28T07:39:55.194Z,29.87
2023-08-28T07:40:55.239Z,29.84
2023-08-28T07:41:55.185Z,29.93
2023-08-28T07:42:55.162Z,29.93
2023-08-28T07:43:55.159Z,29.97
2023-08-28T07:44:55.129Z,29.94
2023-08-28T07:45:55.196Z,29.95
2023-08-28T07:46:55.112Z,30.09
2023-08-28T07:47:55.134Z,30.05
2023-08-28T07:48:55.091Z,30.12
2023-08-28T07:49:55.111Z,30.13
2023-08-28T07:50:55.066Z,30.18
2023-08-28T07:51:55.076Z,30.28
2023-08-28T07:52:55.066Z,30.27
2023-08-28T07:53:55.032Z,30.32
2023-08-28T07:54:55.038Z,30.43
2023-08-28T07:55:55.113Z,30.43
2023-08-28T07:56:55.003Z,30.39
2023-08-28T07:57:54.989Z,30.40
2023-08-28T07:58:54.987Z,30.47
2023-08-28T07:59:55.921Z,30.57
2023-08-28T08:00:54.959Z,30.61
2023-08-28T08:01:55.057Z,30.70
2023-08-28T08:02:54.984Z,30.75
2023-08-28T08:03:55.029Z,30.87
2023-08-28T08:04:54.913Z,30.85
2023-08-28T08:05:54.902Z,30.97
2023-08-28T08:06:54.893Z,30.96
2023-08-28T08:07:54.958Z,31.05
2023-08-28T08:08:54.898Z,31.09
2023-08-28T08:09:54.859Z,31.06
2023-08-28T08:10:54.954Z,31.12
2023-08-28T08:11:54.837Z,31.18
2023-08-28T08:12:54.824Z,31.24
2023-08-28T08:13:54.842Z,31.25
2023-08-28T08:14:54.799Z,31.33
2023-08-28T08:15:55.456Z,31.34
2023-08-28T08:16:54.786Z,31.43
2023-08-28T08:17:54.823Z,31.44
2023-08-28T08:18:54.764Z,31.55
2023-08-28T08:19:54.845Z,31.58
2023-08-28T08:20:54.754Z,31.54
2023-08-28T08:21:54.726Z,31.59
2023-08-28T08:22:55.347Z,31.58
2023-08-28T08:23:54.732Z,31.59
2023-08-28T08:24:54.697Z,31.66
2023-08-28T08:25:54.778Z,31.74
2023-08-28T08:26:54.681Z,31.78
2023-08-28T08:27:54.690Z,31.66
2023-08-28T08:28:54.668Z,31.73
2023-08-28T08:29:54.648Z,31.70
2023-08-28T08:30:54.637Z,31.70
2023-08-28T08:31:54.681Z,31.77
2023-08-28T08:32:54.719Z,31.69
2023-08-28T08:33:55.440Z,31.73
2023-08-28T08:34:54.608Z,31.84
2023-08-28T08:35:54.586Z,31.76
2023-08-28T08:36:54.569Z,31.69
2023-08-28T08:37:54.588Z,31.77
2023-08-28T08:38:54.551Z,31.80
2023-08-28T08:39:54.561Z,31.77
2023-08-28T08:40:54.538Z,31.78
2023-08-28T08:41:54.514Z,31.70
2023-08-28T08:42:54.513Z,31.84
2023-08-28T08:43:54.563Z,31.77
2023-08-28T08:44:54.491Z,31.87
2023-08-28T08:45:54.492Z,31.89
2023-08-28T08:46:54.487Z,31.87
2023-08-28T08:47:54.507Z,31.92
2023-08-28T08:48:54.471Z,31.94
2023-08-28T08:49:54.458Z,32.01
2023-08-28T08:50:54.439Z,31.97
2023-08-28T08:51:54.408Z,31.99
2023-08-28T08:52:54.399Z,32.08
2023-08-28T08:53:54.401Z,32.03
2023-08-28T08:54:54.376Z,32.00
2023-08-28T08:55:54.430Z,31.97
2023-08-28T08:56:54.358Z,31.89
2023-08-28T08:57:54.346Z,32.00
2023-08-28T08:58:54.418Z,31.85
2023-08-28T08:59:54.326Z,31.87
2023-08-28T09:00:54.436Z,31.93
2023-08-28T09:01:54.347Z,31.89
2023-08-28T09:02:54.481Z,31.97
2023-08-28T09:03:54.383Z,31.89
2023-08-28T09:04:54.272Z,31.99
2023-08-28T09:05:54.287Z,32.00
2023-08-28T09:06:54.253Z,32.04
2023-08-28T09:07:54.266Z,32.07
2023-08-28T09:08:54.231Z,32.03
2023-08-28T09:09:54.219Z,32.07
2023-08-28T09:10:54.210Z,32.03
2023-08-28T09:11:54.273Z,32.03
2023-08-28T09:12:54.187Z,32.16
2023-08-28T09:13:54.211Z,32.07
2023-08-28T09:14:54.162Z,32.19
2023-08-28T09:15:54.182Z,32.22
2023-08-28T09:16:54.146Z,32.23
2023-08-28T09:17:54.194Z,32.21
2023-08-28T09:18:54.127Z,32.23
2023-08-28T09:19:54.148Z,32.36
2023-08-28T09:20:54.100Z,32.38
2023-08-28T09:21:54.095Z,32.38
2023-08-28T09:22:54.791Z,32.46
2023-08-28T09:23:54.181Z,32.45
2023-08-28T09:24:54.059Z,32.52
2023-08-28T09:25:54.107Z,32.45
2023-08-28T09:26:54.039Z,32.52
2023-08-28T09:27:54.093Z,32.52
2023-08-28T09:28:54.016Z,32.52
2023-08-28T09:29:54.986Z,32.67
2023-08-28T09:30:53.994Z,32.71
2023-08-28T09:31:54.003Z,32.75
2023-08-28T09:32:54.059Z,32.83
2023-08-28T09:34:05.965Z,32.77
2023-08-28T09:34:54.950Z,32.86
2023-08-28T09:35:53.940Z,32.95
2023-08-28T09:36:53.944Z,32.95
2023-08-28T09:37:53.971Z,33.01
2023-08-28T09:38:53.915Z,33.14
2023-08-28T09:39:53.915Z,33.12
2023-08-28T09:40:53.895Z,33.08
2023-08-28T09:41:53.890Z,33.09
2023-08-28T09:42:53.871Z,33.15
2023-08-28T09:43:53.925Z,33.09
2023-08-28T09:44:53.843Z,33.14
2023-08-28T09:45:53.882Z,33.15
2023-08-28T09:46:53.823Z,33.19
2023-08-28T09:47:53.865Z,33.24
2023-08-28T09:48:53.845Z,33.22
2023-08-28T09:49:53.823Z,33.23
2023-08-28T09:50:53.817Z,33.32
2023-08-28T09:51:53.772Z,33.28
2023-08-28T09:52:53.765Z,33.32
2023-08-28T09:53:53.757Z,33.36
2023-08-28T09:54:53.744Z,33.37
2023-08-28T09:55:53.763Z,33.45
2023-08-28T09:56:53.723Z,33.40
2023-08-28T09:57:53.708Z,33.37
2023-08-28T09:58:53.702Z,33.34
2023-08-28T09:59:53.726Z,33.45
2023-08-28T10:00:53.713Z,33.43
2023-08-28T10:01:53.700Z,33.46
2023-08-28T10:02:53.704Z,33.49
2023-08-28T10:03:53.707Z,33.52
2023-08-28T10:04:53.667Z,33.52
2023-08-28T10:05:53.628Z,33.58
2023-08-28T10:06:53.617Z,33.57
2023-08-28T10:07:53.793Z,33.53
2023-08-28T10:08:53.593Z,33.52
2023-08-28T10:09:53.580Z,33.46
2023-08-28T10:10:53.572Z,33.39
2023-08-28T10:11:53.565Z,33.42
2023-08-28T10:12:53.546Z,33.36
2023-08-28T10:13:53.682Z,33.27
2023-08-28T10:14:53.526Z,33.37
2023-08-28T10:15:53.549Z,33.28
2023-08-28T10:16:53.555Z,33.30
2023-08-28T10:17:53.541Z,33.34
2023-08-28T10:18:53.566Z,33.30
2023-08-28T10:19:53.631Z,33.32
2023-08-28T10:20:53.469Z,33.43
2023-08-28T10:21:53.462Z,33.42
2023-08-28T10:22:53.450Z,33.42
2023-08-28T10:23:53.454Z,33.45
2023-08-28T10:24:53.422Z,33.59
2023-08-28T10:25:53.485Z,33.59
2023-08-28T10:26:53.401Z,33.71
2023-08-28T10:27:53.392Z,33.76
2023-08-28T10:28:53.415Z,33.80
2023-08-28T10:29:53.450Z,33.79
2023-08-28T10:30:53.376Z,33.80
2023-08-28T10:31:53.477Z,33.77
2023-08-28T10:32:53.368Z,33.84
2023-08-28T10:33:53.348Z,33.86
2023-08-28T10:34:53.313Z,33.94
2023-08-28T10:35:53.309Z,33.96
2023-08-28T10:37:53.312Z,34.03
2023-08-28T10:38:58.920Z,34.06
2023-08-28T10:39:54.262Z,34.14
2023-08-28T10:40:53.263Z,34.21
2023-08-28T10:41:53.252Z,34.24
2023-08-28T10:42:53.236Z,34.27
2023-08-28T10:43:53.353Z,34.32
2023-08-28T10:44:53.208Z,34.32
2023-08-28T10:45:53.197Z,34.32
2023-08-28T10:46:53.195Z,34.30
2023-08-28T10:47:53.302Z,34.42
2023-08-28T10:48:53.166Z,34.38
2023-08-28T10:49:53.241Z,34.36
2023-08-28T10:50:53.143Z,34.43
2023-08-28T10:51:53.145Z,34.38
2023-08-28T10:52:53.126Z,34.40
2023-08-28T10:53:53.129Z,34.50
2023-08-28T10:54:53.107Z,34.48
2023-08-28T10:55:53.148Z,34.47
2023-08-28T10:56:53.088Z,34.52
2023-08-28T10:57:53.079Z,34.48
2023-08-28T10:58:53.075Z,34.55
2023-08-28T10:59:53.106Z,34.61
2023-08-28T11:00:53.109Z,34.57
2023-08-28T11:01:53.065Z,34.54
2023-08-28T11:02:53.214Z,34.66
2023-08-28T11:03:53.038Z,34.57
2023-08-28T11:04:52.991Z,34.62
2023-08-28T11:05:53.008Z,34.70
2023-08-28T11:06:53.023Z,34.70
2023-08-28T11:07:52.977Z,34.71
2023-08-28T11:08:52.975Z,34.70
2023-08-28T11:09:52.957Z,34.75
2023-08-28T11:10:52.933Z,34.77
2023-08-28T11:11:52.941Z,34.78
2023-08-28T11:12:52.928Z,34.83
2023-08-28T11:13:52.943Z,34.81
2023-08-28T11:14:54.110Z,34.90
2023-08-28T11:15:52.877Z,34.88
2023-08-28T11:16:52.873Z,34.95
2023-08-28T11:17:52.925Z,34.93
2023-08-28T11:18:52.846Z,34.97
2023-08-28T11:19:52.962Z,34.99
2023-08-28T11:20:52.838Z,34.99
2023-08-28T11:21:52.897Z,35.08
2023-08-28T11:22:52.873Z,35.07
2023-08-28T11:23:52.793Z,35.00
2023-08-28T11:24:52.790Z,34.99
2023-08-28T11:25:52.844Z,35.00
2023-08-28T11:26:52.763Z,35.05
2023-08-28T11:27:52.750Z,35.08
2023-08-28T11:28:52.745Z,34.97
2023-08-28T11:29:52.774Z,35.02
2023-08-28T11:30:52.841Z,35.05
2023-08-28T11:31:52.745Z,35.04
2023-08-28T11:32:53.544Z,35.12
2023-08-28T11:33:52.693Z,35.04
2023-08-28T11:34:52.707Z,35.12
2023-08-28T11:35:52.698Z,34.97
2023-08-28T11:36:52.657Z,35.14
2023-08-28T11:37:52.699Z,35.08
2023-08-28T11:38:52.660Z,35.19
2023-08-28T11:39:52.632Z,35.19
2023-08-28T11:40:52.652Z,35.26
2023-08-28T11:41:52.605Z,35.27
2023-08-28T11:42:52.606Z,35.24
2023-08-28T11:43:52.658Z,35.19
2023-08-28T11:44:52.585Z,35.22
2023-08-28T11:45:52.627Z,35.24
2023-08-28T11:46:52.564Z,35.26
2023-08-28T11:47:52.599Z,35.30
2023-08-28T11:48:52.549Z,35.31
2023-08-28T11:49:52.634Z,35.39
2023-08-28T11:50:52.517Z,35.46
2023-08-28T11:51:52.553Z,35.34
2023-08-28T11:52:52.491Z,35.39
2023-08-28T11:53:52.484Z,35.45
2023-08-28T11:54:52.474Z,35.41
2023-08-28T11:55:52.556Z,35.51
2023-08-28T11:56:52.452Z,35.48
2023-08-28T11:57:52.650Z,35.48
2023-08-28T11:58:52.428Z,35.45
2023-08-28T11:59:52.421Z,35.48
2023-08-28T12:00:52.426Z,35.42
2023-08-28T12:01:52.524Z,35.49
2023-08-28T12:02:52.421Z,35.52
2023-08-28T12:03:52.462Z,35.48
2023-08-28T12:04:52.372Z,35.45
2023-08-28T12:05:52.358Z,35.46
2023-08-28T12:06:52.375Z,35.48
2023-08-28T12:07:52.398Z,35.48
2023-08-28T12:08:52.332Z,35.53
2023-08-28T12:09:52.336Z,35.61
2023-08-28T12:10:52.304Z,35.55
2023-08-28T12:11:52.295Z,35.56
2023-08-28T12:12:52.309Z,35.63
2023-08-28T12:13:52.321Z,35.63
2023-08-28T12:14:52.276Z,35.51
2023-08-28T12:15:52.267Z,35.48
2023-08-28T12:16:52.326Z,35.60
2023-08-28T12:17:52.251Z,35.58
2023-08-28T12:18:52.256Z,35.60
2023-08-28T12:19:52.252Z,35.55
2023-08-28T12:20:52.217Z,35.66
2023-08-28T12:21:52.192Z,35.63
2023-08-28T12:22:52.182Z,35.60
2023-08-28T12:23:52.212Z,35.64
2023-08-28T12:24:52.162Z,35.63
2023-08-28T12:25:52.165Z,35.66
2023-08-28T12:26:52.139Z,35.68
2023-08-28T12:27:52.153Z,35.71
2023-08-28T12:28:52.119Z,35.67
2023-08-28T12:29:52.114Z,35.68
2023-08-28T12:30:52.124Z,35.73
2023-08-28T12:31:52.156Z,35.82
2023-08-28T12:32:52.177Z,35.82
2023-08-28T12:33:52.091Z,35.74
2023-08-28T12:34:52.054Z,35.79
2023-08-28T12:35:52.041Z,35.76
2023-08-28T12:36:52.034Z,35.76
2023-08-28T12:37:52.057Z,35.86
2023-08-28T12:38:52.017Z,35.80
2023-08-28T12:39:52.044Z,35.80
2023-08-28T12:40:51.990Z,35.79
2023-08-28T12:41:51.977Z,35.83
2023-08-28T12:42:52.023Z,35.86
2023-08-28T12:43:52.069Z,35.82
2023-08-28T12:44:51.951Z,35.82
2023-08-28T12:45:51.992Z,35.79
2023-08-28T12:46:51.940Z,35.78
2023-08-28T12:47:51.963Z,35.89
2023-08-28T12:48:51.907Z,35.97
2023-08-28T12:49:51.952Z,35.92
2023-08-28T12:50:51.946Z,35.82
2023-08-28T12:51:51.933Z,36.05
2023-08-28T12:52:51.894Z,36.01